Arcos de la Frontera, Spain
Current Conditions -  °F | °C
As of 4:00 AM on Saturday 22 Nov 2014 (Local Time) from LEJR Reporting Station
Clear Clear  
Wind Chill: 54°   Ceiling: Unl
Heat Index: 54°   Visibility: 6mi
Dew Point: 52°   Wind: 1mph
Humidity: 94%   Direction: NA
Pressure: 29.85"   Gusts: NA
Location:  36.75°N, 5.81°W
Report Text: LEJR 220300Z VRB01KT CAVOK 12/11 Q1011
Loading
Personal Weather Stations






























Interactive Weather Map New forecast layout! Learn more

10-Day Weather Forecast

Advertisements
Track Severe Weather on mobile